<?xml version="1.0" encoding="UTF-8" standalone="no" ?>
<gpx xmlns="http://www.topografix.com/GPX/1/1" xmlns:xsi="http://www.w3.org/2001/XMLSchema-instance" xsi:schemaLocation="http://www.topografix.com/GPX/1/1 http://www.topografix.com/GPX/1/1/gpx.xsd" version="1.1" creator="VisuGPX - https://www.visugpx.com">
  <metadata>
    <name>1177772-st Pierre / gatteville 37 km</name>
  </metadata>
  <trk>
    <name><![CDATA[1177772-st Pierre / gatteville 37 km]]></name>
    <extensions>
      <line xmlns="http://www.topografix.com/GPX/gpx_style/0/2">
        <color>0000FF</color>
        <width>4</width>
      </line>
    </extensions>
    <trkseg>
      <trkpt lat="49.66445" lon="-1.41538">
        <ele>114</ele>
        <time>2019-12-30T16:23:11Z</time>
      </trkpt>
      <trkpt lat="49.66448" lon="-1.41605">
        <ele>114</ele>
        <time>2019-12-30T16:23:46Z</time>
      </trkpt>
      <trkpt lat="49.66447" lon="-1.41694">
        <ele>111</ele>
        <time>2019-12-30T16:24:32Z</time>
      </trkpt>
      <trkpt lat="49.66413" lon="-1.41869">
        <ele>103</ele>
        <time>2019-12-30T16:26:07Z</time>
      </trkpt>
      <trkpt lat="49.66335" lon="-1.42007">
        <ele>97</ele>
        <time>2019-12-30T16:27:42Z</time>
      </trkpt>
      <trkpt lat="49.66331" lon="-1.42101">
        <ele>95</ele>
        <time>2019-12-30T16:28:30Z</time>
      </trkpt>
      <trkpt lat="49.66387" lon="-1.42242">
        <ele>90</ele>
        <time>2019-12-30T16:29:56Z</time>
      </trkpt>
      <trkpt lat="49.66523" lon="-1.42485">
        <ele>79</ele>
        <time>2019-12-30T16:32:43Z</time>
      </trkpt>
      <trkpt lat="49.66621" lon="-1.42524">
        <ele>77</ele>
        <time>2019-12-30T16:34:04Z</time>
      </trkpt>
      <trkpt lat="49.66769" lon="-1.42657">
        <ele>72</ele>
        <time>2019-12-30T16:36:21Z</time>
      </trkpt>
      <trkpt lat="49.66808" lon="-1.42736">
        <ele>69</ele>
        <time>2019-12-30T16:37:12Z</time>
      </trkpt>
      <trkpt lat="49.66852" lon="-1.42929">
        <ele>66</ele>
        <time>2019-12-30T16:38:58Z</time>
      </trkpt>
      <trkpt lat="49.6686" lon="-1.42957">
        <ele>66</ele>
        <time>2019-12-30T16:39:14Z</time>
      </trkpt>
      <trkpt lat="49.66864" lon="-1.43171">
        <ele>63</ele>
        <time>2019-12-30T16:41:05Z</time>
      </trkpt>
      <trkpt lat="49.66847" lon="-1.43242">
        <ele>63</ele>
        <time>2019-12-30T16:41:44Z</time>
      </trkpt>
      <trkpt lat="49.66828" lon="-1.43336">
        <ele>63</ele>
        <time>2019-12-30T16:42:35Z</time>
      </trkpt>
      <trkpt lat="49.66835" lon="-1.43419">
        <ele>63</ele>
        <time>2019-12-30T16:43:19Z</time>
      </trkpt>
      <trkpt lat="49.66811" lon="-1.43618">
        <ele>64</ele>
        <time>2019-12-30T16:45:04Z</time>
      </trkpt>
      <trkpt lat="49.66788" lon="-1.43688">
        <ele>63</ele>
        <time>2019-12-30T16:45:44Z</time>
      </trkpt>
      <trkpt lat="49.66963" lon="-1.44009">
        <ele>58</ele>
        <time>2019-12-30T16:49:22Z</time>
      </trkpt>
      <trkpt lat="49.67031" lon="-1.44098">
        <ele>55</ele>
        <time>2019-12-30T16:50:33Z</time>
      </trkpt>
      <trkpt lat="49.67074" lon="-1.44114">
        <ele>57</ele>
        <time>2019-12-30T16:51:09Z</time>
      </trkpt>
      <trkpt lat="49.67134" lon="-1.44208">
        <ele>57</ele>
        <time>2019-12-30T16:52:17Z</time>
      </trkpt>
      <trkpt lat="49.67133" lon="-1.4427">
        <ele>54</ele>
        <time>2019-12-30T16:52:49Z</time>
      </trkpt>
      <trkpt lat="49.67164" lon="-1.4438">
        <ele>51</ele>
        <time>2019-12-30T16:53:51Z</time>
      </trkpt>
      <trkpt lat="49.67226" lon="-1.4444">
        <ele>51</ele>
        <time>2019-12-30T16:54:50Z</time>
      </trkpt>
      <trkpt lat="49.67306" lon="-1.4457">
        <ele>46</ele>
        <time>2019-12-30T16:56:23Z</time>
      </trkpt>
      <trkpt lat="49.67456" lon="-1.4474">
        <ele>43</ele>
        <time>2019-12-30T16:58:52Z</time>
      </trkpt>
      <trkpt lat="49.67626" lon="-1.44714">
        <ele>38</ele>
        <time>2019-12-30T17:01:09Z</time>
      </trkpt>
      <trkpt lat="49.67708" lon="-1.44735">
        <ele>33</ele>
        <time>2019-12-30T17:02:15Z</time>
      </trkpt>
      <trkpt lat="49.6775" lon="-1.44732">
        <ele>33</ele>
        <time>2019-12-30T17:02:49Z</time>
      </trkpt>
      <trkpt lat="49.67783" lon="-1.44779">
        <ele>35</ele>
        <time>2019-12-30T17:03:25Z</time>
      </trkpt>
      <trkpt lat="49.67826" lon="-1.44777">
        <ele>33</ele>
        <time>2019-12-30T17:03:59Z</time>
      </trkpt>
      <trkpt lat="49.6795" lon="-1.44873">
        <ele>35</ele>
        <time>2019-12-30T17:05:50Z</time>
      </trkpt>
      <trkpt lat="49.67996" lon="-1.44831">
        <ele>30</ele>
        <time>2019-12-30T17:06:33Z</time>
      </trkpt>
      <trkpt lat="49.68114" lon="-1.44889">
        <ele>25</ele>
        <time>2019-12-30T17:08:12Z</time>
      </trkpt>
      <trkpt lat="49.68169" lon="-1.44758">
        <ele>25</ele>
        <time>2019-12-30T17:09:33Z</time>
      </trkpt>
      <trkpt lat="49.68277" lon="-1.4467">
        <ele>17</ele>
        <time>2019-12-30T17:11:11Z</time>
      </trkpt>
      <trkpt lat="49.68406" lon="-1.44456">
        <ele>25</ele>
        <time>2019-12-30T17:13:42Z</time>
      </trkpt>
      <trkpt lat="49.68369" lon="-1.44396">
        <ele>21</ele>
        <time>2019-12-30T17:14:25Z</time>
      </trkpt>
      <trkpt lat="49.68311" lon="-1.44401">
        <ele>17</ele>
        <time>2019-12-30T17:15:12Z</time>
      </trkpt>
      <trkpt lat="49.68159" lon="-1.4426">
        <ele>22</ele>
        <time>2019-12-30T17:17:34Z</time>
      </trkpt>
      <trkpt lat="49.68214" lon="-1.44239">
        <ele>26</ele>
        <time>2019-12-30T17:18:19Z</time>
      </trkpt>
      <trkpt lat="49.68383" lon="-1.44145">
        <ele>30</ele>
        <time>2019-12-30T17:20:43Z</time>
      </trkpt>
      <trkpt lat="49.68476" lon="-1.44124">
        <ele>33</ele>
        <time>2019-12-30T17:21:58Z</time>
      </trkpt>
      <trkpt lat="49.68507" lon="-1.44075">
        <ele>36</ele>
        <time>2019-12-30T17:22:34Z</time>
      </trkpt>
      <trkpt lat="49.68573" lon="-1.43975">
        <ele>35</ele>
        <time>2019-12-30T17:23:48Z</time>
      </trkpt>
      <trkpt lat="49.68484" lon="-1.43808">
        <ele>43</ele>
        <time>2019-12-30T17:25:40Z</time>
      </trkpt>
      <trkpt lat="49.68487" lon="-1.43686">
        <ele>44</ele>
        <time>2019-12-30T17:26:43Z</time>
      </trkpt>
      <trkpt lat="49.68518" lon="-1.43573">
        <ele>45</ele>
        <time>2019-12-30T17:27:46Z</time>
      </trkpt>
      <trkpt lat="49.68478" lon="-1.43367">
        <ele>50</ele>
        <time>2019-12-30T17:29:38Z</time>
      </trkpt>
      <trkpt lat="49.68477" lon="-1.43268">
        <ele>48</ele>
        <time>2019-12-30T17:30:29Z</time>
      </trkpt>
      <trkpt lat="49.68505" lon="-1.43234">
        <ele>44</ele>
        <time>2019-12-30T17:30:58Z</time>
      </trkpt>
      <trkpt lat="49.68549" lon="-1.43054">
        <ele>34</ele>
        <time>2019-12-30T17:32:37Z</time>
      </trkpt>
      <trkpt lat="49.68672" lon="-1.43059">
        <ele>32</ele>
        <time>2019-12-30T17:34:16Z</time>
      </trkpt>
      <trkpt lat="49.68619" lon="-1.42918">
        <ele>31</ele>
        <time>2019-12-30T17:35:40Z</time>
      </trkpt>
      <trkpt lat="49.68548" lon="-1.42819">
        <ele>31</ele>
        <time>2019-12-30T17:36:57Z</time>
      </trkpt>
      <trkpt lat="49.68567" lon="-1.4272">
        <ele>34</ele>
        <time>2019-12-30T17:37:50Z</time>
      </trkpt>
      <trkpt lat="49.68611" lon="-1.42657">
        <ele>34</ele>
        <time>2019-12-30T17:38:38Z</time>
      </trkpt>
      <trkpt lat="49.68671" lon="-1.42441">
        <ele>32</ele>
        <time>2019-12-30T17:40:40Z</time>
      </trkpt>
      <trkpt lat="49.6874" lon="-1.42276">
        <ele>28</ele>
        <time>2019-12-30T17:42:22Z</time>
      </trkpt>
      <trkpt lat="49.68759" lon="-1.4219">
        <ele>29</ele>
        <time>2019-12-30T17:43:09Z</time>
      </trkpt>
      <trkpt lat="49.68823" lon="-1.41934">
        <ele>29</ele>
        <time>2019-12-30T17:45:31Z</time>
      </trkpt>
      <trkpt lat="49.68924" lon="-1.41963">
        <ele>26</ele>
        <time>2019-12-30T17:46:53Z</time>
      </trkpt>
      <trkpt lat="49.68974" lon="-1.41846">
        <ele>25</ele>
        <time>2019-12-30T17:48:06Z</time>
      </trkpt>
      <trkpt lat="49.69045" lon="-1.41712">
        <ele>23</ele>
        <time>2019-12-30T17:49:36Z</time>
      </trkpt>
      <trkpt lat="49.69028" lon="-1.41592">
        <ele>22</ele>
        <time>2019-12-30T17:50:39Z</time>
      </trkpt>
      <trkpt lat="49.69061" lon="-1.41475">
        <ele>22</ele>
        <time>2019-12-30T17:51:46Z</time>
      </trkpt>
      <trkpt lat="49.69173" lon="-1.41464">
        <ele>22</ele>
        <time>2019-12-30T17:53:15Z</time>
      </trkpt>
      <trkpt lat="49.69375" lon="-1.41585">
        <ele>18</ele>
        <time>2019-12-30T17:56:09Z</time>
      </trkpt>
      <trkpt lat="49.69513" lon="-1.41684">
        <ele>16</ele>
        <time>2019-12-30T17:58:11Z</time>
      </trkpt>
      <trkpt lat="49.69593" lon="-1.41538">
        <ele>15</ele>
        <time>2019-12-30T17:59:50Z</time>
      </trkpt>
      <trkpt lat="49.69629" lon="-1.41441">
        <ele>15</ele>
        <time>2019-12-30T18:00:48Z</time>
      </trkpt>
      <trkpt lat="49.69632" lon="-1.41342">
        <ele>14</ele>
        <time>2019-12-30T18:01:39Z</time>
      </trkpt>
      <trkpt lat="49.6968" lon="-1.41331">
        <ele>12</ele>
        <time>2019-12-30T18:02:18Z</time>
      </trkpt>
      <trkpt lat="49.69742" lon="-1.41183">
        <ele>11</ele>
        <time>2019-12-30T18:03:49Z</time>
      </trkpt>
      <trkpt lat="49.69953" lon="-1.40869">
        <ele>4</ele>
        <time>2019-12-30T18:07:44Z</time>
      </trkpt>
      <trkpt lat="49.7015" lon="-1.40611">
        <ele>3</ele>
        <time>2019-12-30T18:11:10Z</time>
      </trkpt>
      <trkpt lat="49.70161" lon="-1.40535">
        <ele>2</ele>
        <time>2019-12-30T18:11:51Z</time>
      </trkpt>
      <trkpt lat="49.70221" lon="-1.40538">
        <ele>1</ele>
        <time>2019-12-30T18:12:39Z</time>
      </trkpt>
      <trkpt lat="49.70267" lon="-1.40376">
        <ele>2</ele>
        <time>2019-12-30T18:14:10Z</time>
      </trkpt>
      <trkpt lat="49.70288" lon="-1.40204">
        <ele>1</ele>
        <time>2019-12-30T18:15:41Z</time>
      </trkpt>
      <trkpt lat="49.70273" lon="-1.40154">
        <ele>1</ele>
        <time>2019-12-30T18:16:10Z</time>
      </trkpt>
      <trkpt lat="49.70313" lon="-1.39935">
        <ele>3.4</ele>
        <time>2019-12-30T18:18:07Z</time>
      </trkpt>
      <trkpt lat="49.70395" lon="-1.39729">
        <ele>1</ele>
        <time>2019-12-30T18:20:13Z</time>
      </trkpt>
      <trkpt lat="49.70547" lon="-1.39452">
        <ele>3.7</ele>
        <time>2019-12-30T18:23:21Z</time>
      </trkpt>
      <trkpt lat="49.70601" lon="-1.39139">
        <ele>3.3</ele>
        <time>2019-12-30T18:26:09Z</time>
      </trkpt>
      <trkpt lat="49.70599" lon="-1.3874">
        <ele>1</ele>
        <time>2019-12-30T18:29:35Z</time>
      </trkpt>
      <trkpt lat="49.70601" lon="-1.38439">
        <ele>1</ele>
        <time>2019-12-30T18:32:11Z</time>
      </trkpt>
      <trkpt lat="49.70615" lon="-1.38202">
        <ele>2</ele>
        <time>2019-12-30T18:34:14Z</time>
      </trkpt>
      <trkpt lat="49.70468" lon="-1.38254">
        <ele>4</ele>
        <time>2019-12-30T18:36:15Z</time>
      </trkpt>
      <trkpt lat="49.70331" lon="-1.38275">
        <ele>4</ele>
        <time>2019-12-30T18:38:05Z</time>
      </trkpt>
      <trkpt lat="49.70158" lon="-1.38121">
        <ele>6</ele>
        <time>2019-12-30T18:40:45Z</time>
      </trkpt>
      <trkpt lat="49.70085" lon="-1.37925">
        <ele>12</ele>
        <time>2019-12-30T18:42:42Z</time>
      </trkpt>
      <trkpt lat="49.7008" lon="-1.37823">
        <ele>12</ele>
        <time>2019-12-30T18:43:35Z</time>
      </trkpt>
      <trkpt lat="49.69977" lon="-1.37745">
        <ele>11</ele>
        <time>2019-12-30T18:45:07Z</time>
      </trkpt>
      <trkpt lat="49.69983" lon="-1.37622">
        <ele>8</ele>
        <time>2019-12-30T18:46:11Z</time>
      </trkpt>
      <trkpt lat="49.6993" lon="-1.37505">
        <ele>9</ele>
        <time>2019-12-30T18:47:25Z</time>
      </trkpt>
      <trkpt lat="49.69926" lon="-1.3732">
        <ele>6</ele>
        <time>2019-12-30T18:49:01Z</time>
      </trkpt>
      <trkpt lat="49.69605" lon="-1.3732">
        <ele>6</ele>
        <time>2019-12-30T18:53:18Z</time>
      </trkpt>
      <trkpt lat="49.69475" lon="-1.37241">
        <ele>9</ele>
        <time>2019-12-30T18:55:10Z</time>
      </trkpt>
      <trkpt lat="49.69374" lon="-1.37181">
        <ele>10</ele>
        <time>2019-12-30T18:56:36Z</time>
      </trkpt>
      <trkpt lat="49.69323" lon="-1.36952">
        <ele>11</ele>
        <time>2019-12-30T18:58:42Z</time>
      </trkpt>
      <trkpt lat="49.69274" lon="-1.36863">
        <ele>15</ele>
        <time>2019-12-30T18:59:42Z</time>
      </trkpt>
      <trkpt lat="49.69226" lon="-1.3686">
        <ele>16</ele>
        <time>2019-12-30T19:00:21Z</time>
      </trkpt>
      <trkpt lat="49.69078" lon="-1.36649">
        <ele>23</ele>
        <time>2019-12-30T19:03:02Z</time>
      </trkpt>
      <trkpt lat="49.68982" lon="-1.36448">
        <ele>24</ele>
        <time>2019-12-30T19:05:11Z</time>
      </trkpt>
      <trkpt lat="49.68877" lon="-1.36534">
        <ele>23</ele>
        <time>2019-12-30T19:06:46Z</time>
      </trkpt>
      <trkpt lat="49.68865" lon="-1.36615">
        <ele>21</ele>
        <time>2019-12-30T19:07:29Z</time>
      </trkpt>
      <trkpt lat="49.68798" lon="-1.36652">
        <ele>22</ele>
        <time>2019-12-30T19:08:26Z</time>
      </trkpt>
      <trkpt lat="49.6901" lon="-1.36448">
        <ele>24</ele>
        <time>2019-12-30T19:11:46Z</time>
      </trkpt>
      <trkpt lat="49.69083" lon="-1.36385">
        <ele>23</ele>
        <time>2019-12-30T19:12:53Z</time>
      </trkpt>
      <trkpt lat="49.69116" lon="-1.36304">
        <ele>24</ele>
        <time>2019-12-30T19:13:43Z</time>
      </trkpt>
      <trkpt lat="49.69261" lon="-1.3619">
        <ele>24</ele>
        <time>2019-12-30T19:15:53Z</time>
      </trkpt>
      <trkpt lat="49.69551" lon="-1.36122">
        <ele>16</ele>
        <time>2019-12-30T19:19:48Z</time>
      </trkpt>
      <trkpt lat="49.69656" lon="-1.36124">
        <ele>15</ele>
        <time>2019-12-30T19:21:12Z</time>
      </trkpt>
      <trkpt lat="49.69636" lon="-1.35848">
        <ele>20</ele>
        <time>2019-12-30T19:23:36Z</time>
      </trkpt>
      <trkpt lat="49.69719" lon="-1.35767">
        <ele>18</ele>
        <time>2019-12-30T19:24:55Z</time>
      </trkpt>
      <trkpt lat="49.6974" lon="-1.35709">
        <ele>18</ele>
        <time>2019-12-30T19:25:29Z</time>
      </trkpt>
      <trkpt lat="49.6991" lon="-1.35532">
        <ele>14</ele>
        <time>2019-12-30T19:28:13Z</time>
      </trkpt>
      <trkpt lat="49.70159" lon="-1.35352">
        <ele>3</ele>
        <time>2019-12-30T19:31:53Z</time>
      </trkpt>
      <trkpt lat="49.7026" lon="-1.35328">
        <ele>1</ele>
        <time>2019-12-30T19:33:15Z</time>
      </trkpt>
      <trkpt lat="49.70218" lon="-1.35109">
        <ele>1</ele>
        <time>2019-12-30T19:35:13Z</time>
      </trkpt>
      <trkpt lat="49.70132" lon="-1.34822">
        <ele>2</ele>
        <time>2019-12-30T19:37:57Z</time>
      </trkpt>
      <trkpt lat="49.70088" lon="-1.34631">
        <ele>1</ele>
        <time>2019-12-30T19:39:42Z</time>
      </trkpt>
      <trkpt lat="49.70037" lon="-1.3442">
        <ele>2</ele>
        <time>2019-12-30T19:41:39Z</time>
      </trkpt>
      <trkpt lat="49.69885" lon="-1.34597">
        <ele>9</ele>
        <time>2019-12-30T19:44:11Z</time>
      </trkpt>
      <trkpt lat="49.70032" lon="-1.34404">
        <ele>2</ele>
        <time>2019-12-30T19:46:45Z</time>
      </trkpt>
      <trkpt lat="49.7002" lon="-1.3413">
        <ele>3.5</ele>
        <time>2019-12-30T19:49:08Z</time>
      </trkpt>
      <trkpt lat="49.70073" lon="-1.3372">
        <ele>2</ele>
        <time>2019-12-30T19:52:44Z</time>
      </trkpt>
      <trkpt lat="49.70148" lon="-1.33342">
        <ele>1</ele>
        <time>2019-12-30T19:56:09Z</time>
      </trkpt>
      <trkpt lat="49.70125" lon="-1.33196">
        <ele>1</ele>
        <time>2019-12-30T19:57:27Z</time>
      </trkpt>
      <trkpt lat="49.70036" lon="-1.33091">
        <ele>1.9</ele>
        <time>2019-12-30T19:58:56Z</time>
      </trkpt>
      <trkpt lat="49.69876" lon="-1.32666">
        <ele>2</ele>
        <time>2019-12-30T20:03:11Z</time>
      </trkpt>
      <trkpt lat="49.69824" lon="-1.32361">
        <ele>1</ele>
        <time>2019-12-30T20:05:54Z</time>
      </trkpt>
      <trkpt lat="49.69798" lon="-1.32037">
        <ele>2</ele>
        <time>2019-12-30T20:08:44Z</time>
      </trkpt>
      <trkpt lat="49.69761" lon="-1.31753">
        <ele>1</ele>
        <time>2019-12-30T20:11:14Z</time>
      </trkpt>
      <trkpt lat="49.69667" lon="-1.31338">
        <ele>2</ele>
        <time>2019-12-30T20:15:01Z</time>
      </trkpt>
      <trkpt lat="49.69598" lon="-1.30936">
        <ele>2</ele>
        <time>2019-12-30T20:18:37Z</time>
      </trkpt>
      <trkpt lat="49.69496" lon="-1.30701">
        <ele>1</ele>
        <time>2019-12-30T20:21:03Z</time>
      </trkpt>
      <trkpt lat="49.69409" lon="-1.30635">
        <ele>1</ele>
        <time>2019-12-30T20:22:21Z</time>
      </trkpt>
      <trkpt lat="49.6941" lon="-1.30565">
        <ele>1</ele>
        <time>2019-12-30T20:22:57Z</time>
      </trkpt>
      <trkpt lat="49.69379" lon="-1.30515">
        <ele>3.1</ele>
        <time>2019-12-30T20:23:33Z</time>
      </trkpt>
      <trkpt lat="49.69292" lon="-1.30004">
        <ele>1</ele>
        <time>2019-12-30T20:28:07Z</time>
      </trkpt>
      <trkpt lat="49.69244" lon="-1.29876">
        <ele>1</ele>
        <time>2019-12-30T20:29:23Z</time>
      </trkpt>
      <trkpt lat="49.69227" lon="-1.29696">
        <ele>1</ele>
        <time>2019-12-30T20:30:58Z</time>
      </trkpt>
      <trkpt lat="49.69212" lon="-1.2945">
        <ele>1</ele>
        <time>2019-12-30T20:33:05Z</time>
      </trkpt>
      <trkpt lat="49.69132" lon="-1.28939">
        <ele>4</ele>
        <time>2019-12-30T20:37:38Z</time>
      </trkpt>
      <trkpt lat="49.69251" lon="-1.28675">
        <ele>6</ele>
        <time>2019-12-30T20:40:24Z</time>
      </trkpt>
      <trkpt lat="49.69331" lon="-1.28459">
        <ele>2</ele>
        <time>2019-12-30T20:42:33Z</time>
      </trkpt>
      <trkpt lat="49.69402" lon="-1.2813">
        <ele>1</ele>
        <time>2019-12-30T20:45:33Z</time>
      </trkpt>
      <trkpt lat="49.69407" lon="-1.27944">
        <ele>1</ele>
        <time>2019-12-30T20:47:09Z</time>
      </trkpt>
      <trkpt lat="49.69271" lon="-1.27944">
        <ele>1</ele>
        <time>2019-12-30T20:48:58Z</time>
      </trkpt>
      <trkpt lat="49.69249" lon="-1.28059">
        <ele>3</ele>
        <time>2019-12-30T20:50:00Z</time>
      </trkpt>
      <trkpt lat="49.69088" lon="-1.28472">
        <ele>5</ele>
        <time>2019-12-30T20:54:10Z</time>
      </trkpt>
      <trkpt lat="49.69051" lon="-1.28691">
        <ele>7</ele>
        <time>2019-12-30T20:56:07Z</time>
      </trkpt>
      <trkpt lat="49.69009" lon="-1.28751">
        <ele>9</ele>
        <time>2019-12-30T20:56:53Z</time>
      </trkpt>
      <trkpt lat="49.6888" lon="-1.28866">
        <ele>10</ele>
        <time>2019-12-30T20:58:52Z</time>
      </trkpt>
      <trkpt lat="49.68772" lon="-1.28988">
        <ele>14</ele>
        <time>2019-12-30T21:00:40Z</time>
      </trkpt>
      <trkpt lat="49.68647" lon="-1.29197">
        <ele>11</ele>
        <time>2019-12-30T21:03:07Z</time>
      </trkpt>
      <trkpt lat="49.68473" lon="-1.29362">
        <ele>15</ele>
        <time>2019-12-30T21:05:50Z</time>
      </trkpt>
      <trkpt lat="49.68449" lon="-1.2945">
        <ele>13</ele>
        <time>2019-12-30T21:06:40Z</time>
      </trkpt>
      <trkpt lat="49.68143" lon="-1.29996">
        <ele>11</ele>
        <time>2019-12-30T21:12:54Z</time>
      </trkpt>
      <trkpt lat="49.68099" lon="-1.30095">
        <ele>11</ele>
        <time>2019-12-30T21:13:56Z</time>
      </trkpt>
      <trkpt lat="49.67961" lon="-1.3057">
        <ele>17</ele>
        <time>2019-12-30T21:18:26Z</time>
      </trkpt>
      <trkpt lat="49.67914" lon="-1.30821">
        <ele>20</ele>
        <time>2019-12-30T21:20:41Z</time>
      </trkpt>
      <trkpt lat="49.67889" lon="-1.30894">
        <ele>21</ele>
        <time>2019-12-30T21:21:24Z</time>
      </trkpt>
      <trkpt lat="49.67876" lon="-1.31063">
        <ele>21</ele>
        <time>2019-12-30T21:22:52Z</time>
      </trkpt>
      <trkpt lat="49.67827" lon="-1.3163">
        <ele>23</ele>
        <time>2019-12-30T21:27:49Z</time>
      </trkpt>
      <trkpt lat="49.6784" lon="-1.31664">
        <ele>24</ele>
        <time>2019-12-30T21:28:09Z</time>
      </trkpt>
      <trkpt lat="49.67849" lon="-1.31789">
        <ele>23</ele>
        <time>2019-12-30T21:29:14Z</time>
      </trkpt>
      <trkpt lat="49.67927" lon="-1.31925">
        <ele>15</ele>
        <time>2019-12-30T21:30:49Z</time>
      </trkpt>
      <trkpt lat="49.67978" lon="-1.32141">
        <ele>15</ele>
        <time>2019-12-30T21:32:48Z</time>
      </trkpt>
      <trkpt lat="49.68087" lon="-1.32418">
        <ele>13</ele>
        <time>2019-12-30T21:35:36Z</time>
      </trkpt>
      <trkpt lat="49.68115" lon="-1.32473">
        <ele>12</ele>
        <time>2019-12-30T21:36:12Z</time>
      </trkpt>
      <trkpt lat="49.68227" lon="-1.32564">
        <ele>14</ele>
        <time>2019-12-30T21:37:53Z</time>
      </trkpt>
      <trkpt lat="49.68381" lon="-1.32713">
        <ele>17</ele>
        <time>2019-12-30T21:40:19Z</time>
      </trkpt>
      <trkpt lat="49.68374" lon="-1.3275">
        <ele>16</ele>
        <time>2019-12-30T21:40:39Z</time>
      </trkpt>
      <trkpt lat="49.68444" lon="-1.32786">
        <ele>16</ele>
        <time>2019-12-30T21:41:38Z</time>
      </trkpt>
      <trkpt lat="49.68348" lon="-1.32956">
        <ele>15</ele>
        <time>2019-12-30T21:43:35Z</time>
      </trkpt>
      <trkpt lat="49.68336" lon="-1.33034">
        <ele>16</ele>
        <time>2019-12-30T21:44:16Z</time>
      </trkpt>
      <trkpt lat="49.68313" lon="-1.33165">
        <ele>17</ele>
        <time>2019-12-30T21:45:27Z</time>
      </trkpt>
      <trkpt lat="49.68293" lon="-1.33204">
        <ele>18</ele>
        <time>2019-12-30T21:45:52Z</time>
      </trkpt>
      <trkpt lat="49.68207" lon="-1.33138">
        <ele>19</ele>
        <time>2019-12-30T21:47:09Z</time>
      </trkpt>
      <trkpt lat="49.6816" lon="-1.33298">
        <ele>21</ele>
        <time>2019-12-30T21:48:40Z</time>
      </trkpt>
      <trkpt lat="49.68127" lon="-1.33462">
        <ele>23</ele>
        <time>2019-12-30T21:50:09Z</time>
      </trkpt>
      <trkpt lat="49.68154" lon="-1.33621">
        <ele>24</ele>
        <time>2019-12-30T21:51:34Z</time>
      </trkpt>
      <trkpt lat="49.68272" lon="-1.33705">
        <ele>21</ele>
        <time>2019-12-30T21:53:18Z</time>
      </trkpt>
      <trkpt lat="49.6832" lon="-1.33822">
        <ele>22</ele>
        <time>2019-12-30T21:54:30Z</time>
      </trkpt>
      <trkpt lat="49.6829" lon="-1.33869">
        <ele>23</ele>
        <time>2019-12-30T21:55:04Z</time>
      </trkpt>
      <trkpt lat="49.68266" lon="-1.34015">
        <ele>25</ele>
        <time>2019-12-30T21:56:22Z</time>
      </trkpt>
      <trkpt lat="49.68259" lon="-1.34188">
        <ele>27</ele>
        <time>2019-12-30T21:57:52Z</time>
      </trkpt>
      <trkpt lat="49.68242" lon="-1.34342">
        <ele>28</ele>
        <time>2019-12-30T21:59:13Z</time>
      </trkpt>
      <trkpt lat="49.68209" lon="-1.34436">
        <ele>30</ele>
        <time>2019-12-30T22:00:09Z</time>
      </trkpt>
      <trkpt lat="49.68086" lon="-1.34652">
        <ele>35</ele>
        <time>2019-12-30T22:02:38Z</time>
      </trkpt>
      <trkpt lat="49.68033" lon="-1.34715">
        <ele>37</ele>
        <time>2019-12-30T22:03:31Z</time>
      </trkpt>
      <trkpt lat="49.67944" lon="-1.3484">
        <ele>47</ele>
        <time>2019-12-30T22:05:07Z</time>
      </trkpt>
      <trkpt lat="49.67922" lon="-1.34908">
        <ele>53</ele>
        <time>2019-12-30T22:05:47Z</time>
      </trkpt>
      <trkpt lat="49.67977" lon="-1.3502">
        <ele>51</ele>
        <time>2019-12-30T22:07:00Z</time>
      </trkpt>
      <trkpt lat="49.68058" lon="-1.35125">
        <ele>49</ele>
        <time>2019-12-30T22:08:24Z</time>
      </trkpt>
      <trkpt lat="49.68081" lon="-1.35234">
        <ele>50</ele>
        <time>2019-12-30T22:09:24Z</time>
      </trkpt>
      <trkpt lat="49.68098" lon="-1.35333">
        <ele>47</ele>
        <time>2019-12-30T22:10:17Z</time>
      </trkpt>
      <trkpt lat="49.68126" lon="-1.35464">
        <ele>42</ele>
        <time>2019-12-30T22:11:28Z</time>
      </trkpt>
      <trkpt lat="49.68101" lon="-1.35678">
        <ele>39</ele>
        <time>2019-12-30T22:13:21Z</time>
      </trkpt>
      <trkpt lat="49.68081" lon="-1.36004">
        <ele>31</ele>
        <time>2019-12-30T22:16:11Z</time>
      </trkpt>
      <trkpt lat="49.68292" lon="-1.36101">
        <ele>28</ele>
        <time>2019-12-30T22:19:07Z</time>
      </trkpt>
      <trkpt lat="49.68311" lon="-1.36153">
        <ele>26</ele>
        <time>2019-12-30T22:19:38Z</time>
      </trkpt>
      <trkpt lat="49.68272" lon="-1.3619">
        <ele>27</ele>
        <time>2019-12-30T22:20:14Z</time>
      </trkpt>
      <trkpt lat="49.68264" lon="-1.36255">
        <ele>27</ele>
        <time>2019-12-30T22:20:49Z</time>
      </trkpt>
      <trkpt lat="49.68306" lon="-1.36518">
        <ele>29</ele>
        <time>2019-12-30T22:23:09Z</time>
      </trkpt>
      <trkpt lat="49.68323" lon="-1.3655">
        <ele>29</ele>
        <time>2019-12-30T22:23:30Z</time>
      </trkpt>
      <trkpt lat="49.68333" lon="-1.36816">
        <ele>30</ele>
        <time>2019-12-30T22:25:48Z</time>
      </trkpt>
      <trkpt lat="49.68332" lon="-1.37072">
        <ele>28</ele>
        <time>2019-12-30T22:28:01Z</time>
      </trkpt>
      <trkpt lat="49.6831" lon="-1.37281">
        <ele>28</ele>
        <time>2019-12-30T22:29:51Z</time>
      </trkpt>
      <trkpt lat="49.68336" lon="-1.37406">
        <ele>25</ele>
        <time>2019-12-30T22:30:59Z</time>
      </trkpt>
      <trkpt lat="49.685" lon="-1.37547">
        <ele>27</ele>
        <time>2019-12-30T22:33:29Z</time>
      </trkpt>
      <trkpt lat="49.6855" lon="-1.37709">
        <ele>24</ele>
        <time>2019-12-30T22:35:02Z</time>
      </trkpt>
      <trkpt lat="49.68536" lon="-1.37763">
        <ele>24</ele>
        <time>2019-12-30T22:35:32Z</time>
      </trkpt>
      <trkpt lat="49.68453" lon="-1.37797">
        <ele>25</ele>
        <time>2019-12-30T22:36:41Z</time>
      </trkpt>
      <trkpt lat="49.68238" lon="-1.37813">
        <ele>28</ele>
        <time>2019-12-30T22:39:33Z</time>
      </trkpt>
      <trkpt lat="49.67982" lon="-1.37857">
        <ele>35</ele>
        <time>2019-12-30T22:43:00Z</time>
      </trkpt>
      <trkpt lat="49.67988" lon="-1.38288">
        <ele>37</ele>
        <time>2019-12-30T22:46:43Z</time>
      </trkpt>
      <trkpt lat="49.6802" lon="-1.38429">
        <ele>38</ele>
        <time>2019-12-30T22:48:00Z</time>
      </trkpt>
      <trkpt lat="49.68008" lon="-1.38651">
        <ele>38</ele>
        <time>2019-12-30T22:49:56Z</time>
      </trkpt>
      <trkpt lat="49.68016" lon="-1.38797">
        <ele>33</ele>
        <time>2019-12-30T22:51:12Z</time>
      </trkpt>
      <trkpt lat="49.67981" lon="-1.38857">
        <ele>33</ele>
        <time>2019-12-30T22:51:53Z</time>
      </trkpt>
      <trkpt lat="49.6784" lon="-1.38865">
        <ele>38</ele>
        <time>2019-12-30T22:53:46Z</time>
      </trkpt>
      <trkpt lat="49.67738" lon="-1.3892">
        <ele>39</ele>
        <time>2019-12-30T22:55:13Z</time>
      </trkpt>
      <trkpt lat="49.6765" lon="-1.38954">
        <ele>41</ele>
        <time>2019-12-30T22:56:26Z</time>
      </trkpt>
      <trkpt lat="49.67509" lon="-1.39102">
        <ele>46</ele>
        <time>2019-12-30T22:58:42Z</time>
      </trkpt>
      <trkpt lat="49.67363" lon="-1.39249">
        <ele>50</ele>
        <time>2019-12-30T23:01:02Z</time>
      </trkpt>
      <trkpt lat="49.6736" lon="-1.39319">
        <ele>51</ele>
        <time>2019-12-30T23:01:38Z</time>
      </trkpt>
      <trkpt lat="49.67232" lon="-1.3941">
        <ele>56</ele>
        <time>2019-12-30T23:03:31Z</time>
      </trkpt>
      <trkpt lat="49.67181" lon="-1.39914">
        <ele>61</ele>
        <time>2019-12-30T23:07:55Z</time>
      </trkpt>
      <trkpt lat="49.67151" lon="-1.40112">
        <ele>62</ele>
        <time>2019-12-30T23:09:40Z</time>
      </trkpt>
      <trkpt lat="49.67107" lon="-1.40261">
        <ele>65</ele>
        <time>2019-12-30T23:11:05Z</time>
      </trkpt>
      <trkpt lat="49.67113" lon="-1.40457">
        <ele>71</ele>
        <time>2019-12-30T23:12:47Z</time>
      </trkpt>
      <trkpt lat="49.67085" lon="-1.40788">
        <ele>70</ele>
        <time>2019-12-30T23:15:40Z</time>
      </trkpt>
      <trkpt lat="49.67037" lon="-1.40916">
        <ele>74</ele>
        <time>2019-12-30T23:16:57Z</time>
      </trkpt>
      <trkpt lat="49.67052" lon="-1.40945">
        <ele>75</ele>
        <time>2019-12-30T23:17:16Z</time>
      </trkpt>
      <trkpt lat="49.67084" lon="-1.40971">
        <ele>76</ele>
        <time>2019-12-30T23:17:45Z</time>
      </trkpt>
      <trkpt lat="49.67122" lon="-1.41107">
        <ele>77</ele>
        <time>2019-12-30T23:19:02Z</time>
      </trkpt>
      <trkpt lat="49.67161" lon="-1.41274">
        <ele>78</ele>
        <time>2019-12-30T23:20:34Z</time>
      </trkpt>
      <trkpt lat="49.67077" lon="-1.41488">
        <ele>81</ele>
        <time>2019-12-30T23:22:43Z</time>
      </trkpt>
      <trkpt lat="49.67154" lon="-1.41629">
        <ele>78</ele>
        <time>2019-12-30T23:24:19Z</time>
      </trkpt>
      <trkpt lat="49.67232" lon="-1.419">
        <ele>78</ele>
        <time>2019-12-30T23:26:53Z</time>
      </trkpt>
      <trkpt lat="49.67094" lon="-1.41926">
        <ele>82</ele>
        <time>2019-12-30T23:28:44Z</time>
      </trkpt>
      <trkpt lat="49.66802" lon="-1.41926">
        <ele>90</ele>
        <time>2019-12-30T23:32:38Z</time>
      </trkpt>
      <trkpt lat="49.66485" lon="-1.41924">
        <ele>94</ele>
        <time>2019-12-30T23:36:51Z</time>
      </trkpt>
      <trkpt lat="49.66475" lon="-1.41671">
        <ele>110</ele>
        <time>2019-12-30T23:39:03Z</time>
      </trkpt>
      <trkpt lat="49.66467" lon="-1.41551">
        <ele>114</ele>
        <time>2019-12-30T23:40:05Z</time>
      </trkpt>
    </trkseg>
  </trk>
</gpx>